Terminal Aerodrome Forecast
Issued by NWS

Home | Current Version | Previous Version | Text Only | Print | Product List | Glossary On
Versions: 1 2 3 4 5 6 7 8 9 10 11 12
744
FTUS45 KGGW 272332
TAFSDY
TAF
KSDY 272332Z 2800/2824 16013G21KT P6SM -SHRA BKN100
     FM280200 14010KT P6SM BKN110
     FM280500 13007KT P6SM VCTS BKN100CB
     FM280900 13007KT P6SM VCSH BKN090 PROB30 2809/2811 6SM TS
      OVC040CB
     FM281400 17009KT P6SM SCT100=

USA.gov is the U.S. government's official web portal to all federal, state and local government web resources and services.